sensor_id;sensor_type;location;lat;lon;timestamp;P1;durP1;ratioP1;P2;durP2;ratioP2
26082;SDS011;13848;49.018;12.078;2024-03-07T00:00:34;38.25;;;18.70;;
26082;SDS011;13848;49.018;12.078;2024-03-07T00:03:00;34.00;;;18.80;;
26082;SDS011;13848;49.018;12.078;2024-03-07T00:05:27;38.08;;;18.55;;
26082;SDS011;13848;49.018;12.078;2024-03-07T00:07:53;34.15;;;18.20;;
26082;SDS011;13848;49.018;12.078;2024-03-07T00:10:19;34.75;;;17.95;;
26082;SDS011;13848;49.018;12.078;2024-03-07T00:12:47;35.92;;;18.58;;
26082;SDS011;13848;49.018;12.078;2024-03-07T00:15:13;34.05;;;18.50;;
26082;SDS011;13848;49.018;12.078;2024-03-07T00:17:40;34.97;;;18.30;;
26082;SDS011;13848;49.018;12.078;2024-03-07T00:20:06;37.13;;;18.55;;
26082;SDS011;13848;49.018;12.078;2024-03-07T00:22:33;36.45;;;19.70;;
26082;SDS011;13848;49.018;12.078;2024-03-07T00:24:59;38.97;;;18.95;;
26082;SDS011;13848;49.018;12.078;2024-03-07T00:27:25;38.20;;;18.70;;
26082;SDS011;13848;49.018;12.078;2024-03-07T00:29:52;37.20;;;18.55;;
26082;SDS011;13848;49.018;12.078;2024-03-07T00:32:18;33.35;;;18.23;;
26082;SDS011;13848;49.018;12.078;2024-03-07T00:34:45;40.47;;;18.90;;
26082;SDS011;13848;49.018;12.078;2024-03-07T00:37:11;35.90;;;18.33;;
26082;SDS011;13848;49.018;12.078;2024-03-07T00:39:36;32.15;;;18.00;;
26082;SDS011;13848;49.018;12.078;2024-03-07T00:42:02;37.85;;;19.13;;
26082;SDS011;13848;49.018;12.078;2024-03-07T00:44:29;39.30;;;19.20;;
26082;SDS011;13848;49.018;12.078;2024-03-07T00:46:56;30.60;;;16.65;;
26082;SDS011;13848;49.018;12.078;2024-03-07T00:49:22;32.28;;;17.48;;
26082;SDS011;13848;49.018;12.078;2024-03-07T00:51:48;35.33;;;17.67;;
26082;SDS011;13848;49.018;12.078;2024-03-07T00:54:14;33.72;;;18.45;;
26082;SDS011;13848;49.018;12.078;2024-03-07T00:56:40;34.85;;;18.33;;
26082;SDS011;13848;49.018;12.078;2024-03-07T00:59:06;37.90;;;19.33;;
26082;SDS011;13848;49.018;12.078;2024-03-07T01:01:32;36.65;;;18.73;;
26082;SDS011;13848;49.018;12.078;2024-03-07T01:03:59;34.22;;;18.65;;
26082;SDS011;13848;49.018;12.078;2024-03-07T01:06:25;36.35;;;18.75;;
26082;SDS011;13848;49.018;12.078;2024-03-07T01:08:51;35.38;;;18.80;;
26082;SDS011;13848;49.018;12.078;2024-03-07T01:11:17;36.85;;;18.63;;
26082;SDS011;13848;49.018;12.078;2024-03-07T01:13:43;34.42;;;18.35;;
26082;SDS011;13848;49.018;12.078;2024-03-07T01:16:09;34.10;;;17.25;;
26082;SDS011;13848;49.018;12.078;2024-03-07T01:18:36;39.17;;;18.65;;
26082;SDS011;13848;49.018;12.078;2024-03-07T01:21:04;37.78;;;18.35;;
26082;SDS011;13848;49.018;12.078;2024-03-07T01:23:31;34.85;;;18.42;;
26082;SDS011;13848;49.018;12.078;2024-03-07T01:25:57;37.28;;;19.02;;
26082;SDS011;13848;49.018;12.078;2024-03-07T01:28:23;35.55;;;18.38;;
26082;SDS011;13848;49.018;12.078;2024-03-07T01:30:49;38.53;;;17.42;;
26082;SDS011;13848;49.018;12.078;2024-03-07T01:33:16;36.15;;;18.27;;
26082;SDS011;13848;49.018;12.078;2024-03-07T01:35:42;40.78;;;20.55;;
26082;SDS011;13848;49.018;12.078;2024-03-07T01:38:09;37.65;;;19.38;;
26082;SDS011;13848;49.018;12.078;2024-03-07T01:40:35;35.67;;;18.15;;
26082;SDS011;13848;49.018;12.078;2024-03-07T01:43:01;38.30;;;19.15;;
26082;SDS011;13848;49.018;12.078;2024-03-07T01:45:27;39.55;;;19.13;;
26082;SDS011;13848;49.018;12.078;2024-03-07T01:47:53;36.55;;;19.48;;
26082;SDS011;13848;49.018;12.078;2024-03-07T01:50:20;38.13;;;19.27;;
26082;SDS011;13848;49.018;12.078;2024-03-07T01:52:46;36.35;;;18.42;;
26082;SDS011;13848;49.018;12.078;2024-03-07T01:55:13;37.90;;;18.00;;
26082;SDS011;13848;49.018;12.078;2024-03-07T01:57:39;32.47;;;18.23;;
26082;SDS011;13848;49.018;12.078;2024-03-07T02:00:06;35.47;;;18.73;;
26082;SDS011;13848;49.018;12.078;2024-03-07T02:02:32;35.28;;;17.45;;
26082;SDS011;13848;49.018;12.078;2024-03-07T02:04:58;37.03;;;18.70;;
26082;SDS011;13848;49.018;12.078;2024-03-07T02:07:24;34.53;;;18.23;;
26082;SDS011;13848;49.018;12.078;2024-03-07T02:09:58;32.88;;;17.95;;
26082;SDS011;13848;49.018;12.078;2024-03-07T02:12:26;39.80;;;18.00;;
26082;SDS011;13848;49.018;12.078;2024-03-07T02:14:52;32.72;;;18.42;;
26082;SDS011;13848;49.018;12.078;2024-03-07T02:17:18;39.30;;;19.48;;
26082;SDS011;13848;49.018;12.078;2024-03-07T02:19:44;34.72;;;18.35;;
26082;SDS011;13848;49.018;12.078;2024-03-07T02:22:11;31.85;;;17.60;;
26082;SDS011;13848;49.018;12.078;2024-03-07T02:24:37;37.47;;;18.45;;
26082;SDS011;13848;49.018;12.078;2024-03-07T02:27:03;34.70;;;18.52;;
26082;SDS011;13848;49.018;12.078;2024-03-07T02:29:29;35.85;;;17.90;;
26082;SDS011;13848;49.018;12.078;2024-03-07T02:31:55;34.50;;;18.40;;
26082;SDS011;13848;49.018;12.078;2024-03-07T02:34:21;33.92;;;18.75;;
26082;SDS011;13848;49.018;12.078;2024-03-07T02:36:47;36.35;;;18.27;;
26082;SDS011;13848;49.018;12.078;2024-03-07T02:39:14;33.08;;;18.73;;
26082;SDS011;13848;49.018;12.078;2024-03-07T02:41:40;36.72;;;18.50;;
26082;SDS011;13848;49.018;12.078;2024-03-07T02:44:06;36.05;;;17.38;;
26082;SDS011;13848;49.018;12.078;2024-03-07T02:46:32;37.17;;;18.50;;
26082;SDS011;13848;49.018;12.078;2024-03-07T02:48:58;37.97;;;19.10;;
26082;SDS011;13848;49.018;12.078;2024-03-07T02:51:24;37.97;;;19.20;;
26082;SDS011;13848;49.018;12.078;2024-03-07T02:53:50;37.58;;;19.02;;
26082;SDS011;13848;49.018;12.078;2024-03-07T02:56:17;37.90;;;18.80;;
26082;SDS011;13848;49.018;12.078;2024-03-07T02:58:43;36.10;;;19.17;;
26082;SDS011;13848;49.018;12.078;2024-03-07T03:01:09;45.17;;;20.33;;
26082;SDS011;13848;49.018;12.078;2024-03-07T03:03:35;38.30;;;19.38;;
26082;SDS011;13848;49.018;12.078;2024-03-07T03:06:01;38.40;;;20.10;;
26082;SDS011;13848;49.018;12.078;2024-03-07T03:08:27;36.80;;;18.73;;
26082;SDS011;13848;49.018;12.078;2024-03-07T03:10:53;37.78;;;19.73;;
26082;SDS011;13848;49.018;12.078;2024-03-07T03:13:20;40.70;;;19.70;;
26082;SDS011;13848;49.018;12.078;2024-03-07T03:15:46;35.70;;;19.13;;
26082;SDS011;13848;49.018;12.078;2024-03-07T03:18:12;38.67;;;19.60;;
26082;SDS011;13848;49.018;12.078;2024-03-07T03:20:38;36.95;;;19.25;;
26082;SDS011;13848;49.018;12.078;2024-03-07T03:23:05;38.67;;;20.08;;
26082;SDS011;13848;49.018;12.078;2024-03-07T03:25:31;41.38;;;19.13;;
26082;SDS011;13848;49.018;12.078;2024-03-07T03:27:57;41.97;;;20.60;;
26082;SDS011;13848;49.018;12.078;2024-03-07T03:30:24;40.33;;;20.95;;
26082;SDS011;13848;49.018;12.078;2024-03-07T03:32:50;37.72;;;19.30;;
26082;SDS011;13848;49.018;12.078;2024-03-07T03:35:16;35.38;;;18.92;;
26082;SDS011;13848;49.018;12.078;2024-03-07T03:37:42;38.05;;;19.35;;
26082;SDS011;13848;49.018;12.078;2024-03-07T03:40:09;33.42;;;18.73;;
26082;SDS011;13848;49.018;12.078;2024-03-07T03:42:36;37.63;;;19.33;;
26082;SDS011;13848;49.018;12.078;2024-03-07T03:45:03;43.95;;;19.75;;
26082;SDS011;13848;49.018;12.078;2024-03-07T03:47:31;36.05;;;18.92;;
26082;SDS011;13848;49.018;12.078;2024-03-07T03:49:58;40.08;;;19.90;;
26082;SDS011;13848;49.018;12.078;2024-03-07T03:52:24;38.67;;;19.30;;
26082;SDS011;13848;49.018;12.078;2024-03-07T03:54:49;37.78;;;18.40;;
26082;SDS011;13848;49.018;12.078;2024-03-07T03:57:15;36.03;;;18.83;;
26082;SDS011;13848;49.018;12.078;2024-03-07T03:59:42;36.35;;;19.35;;
26082;SDS011;13848;49.018;12.078;2024-03-07T04:02:08;39.33;;;20.00;;
26082;SDS011;13848;49.018;12.078;2024-03-07T04:04:38;39.85;;;19.23;;
26082;SDS011;13848;49.018;12.078;2024-03-07T04:07:04;37.15;;;19.27;;
26082;SDS011;13848;49.018;12.078;2024-03-07T04:09:30;38.85;;;18.83;;
26082;SDS011;13848;49.018;12.078;2024-03-07T04:11:56;39.47;;;19.35;;
26082;SDS011;13848;49.018;12.078;2024-03-07T04:14:22;40.00;;;20.35;;
26082;SDS011;13848;49.018;12.078;2024-03-07T04:16:48;38.25;;;19.02;;
26082;SDS011;13848;49.018;12.078;2024-03-07T04:19:14;39.85;;;19.63;;
26082;SDS011;13848;49.018;12.078;2024-03-07T04:21:41;36.90;;;18.55;;
26082;SDS011;13848;49.018;12.078;2024-03-07T04:24:07;32.55;;;18.92;;
26082;SDS011;13848;49.018;12.078;2024-03-07T04:26:33;34.70;;;17.90;;
26082;SDS011;13848;49.018;12.078;2024-03-07T04:28:59;35.95;;;18.58;;
26082;SDS011;13848;49.018;12.078;2024-03-07T04:31:25;36.13;;;18.52;;
26082;SDS011;13848;49.018;12.078;2024-03-07T04:33:51;37.58;;;19.83;;
26082;SDS011;13848;49.018;12.078;2024-03-07T04:36:17;37.38;;;18.13;;
26082;SDS011;13848;49.018;12.078;2024-03-07T04:38:44;35.80;;;18.80;;
26082;SDS011;13848;49.018;12.078;2024-03-07T04:41:10;36.13;;;18.63;;
26082;SDS011;13848;49.018;12.078;2024-03-07T04:43:36;37.20;;;18.30;;
26082;SDS011;13848;49.018;12.078;2024-03-07T04:46:02;38.22;;;19.38;;
26082;SDS011;13848;49.018;12.078;2024-03-07T04:48:28;37.88;;;18.63;;
26082;SDS011;13848;49.018;12.078;2024-03-07T04:50:54;40.13;;;18.85;;
26082;SDS011;13848;49.018;12.078;2024-03-07T04:53:20;38.20;;;20.00;;
26082;SDS011;13848;49.018;12.078;2024-03-07T04:55:48;47.83;;;19.45;;
26082;SDS011;13848;49.018;12.078;2024-03-07T04:58:13;38.90;;;18.92;;
26082;SDS011;13848;49.018;12.078;2024-03-07T05:00:39;41.58;;;19.83;;
26082;SDS011;13848;49.018;12.078;2024-03-07T05:03:05;38.03;;;18.08;;
26082;SDS011;13848;49.018;12.078;2024-03-07T05:05:31;38.53;;;18.85;;
26082;SDS011;13848;49.018;12.078;2024-03-07T05:07:57;40.65;;;18.98;;
26082;SDS011;13848;49.018;12.078;2024-03-07T05:10:23;35.85;;;18.65;;
26082;SDS011;13848;49.018;12.078;2024-03-07T05:12:51;36.40;;;19.15;;
26082;SDS011;13848;49.018;12.078;2024-03-07T05:15:17;35.17;;;17.75;;
26082;SDS011;13848;49.018;12.078;2024-03-07T05:17:43;48.28;;;19.95;;
26082;SDS011;13848;49.018;12.078;2024-03-07T05:20:09;37.83;;;19.08;;
26082;SDS011;13848;49.018;12.078;2024-03-07T05:22:35;41.78;;;17.50;;
26082;SDS011;13848;49.018;12.078;2024-03-07T05:25:01;34.00;;;18.38;;
26082;SDS011;13848;49.018;12.078;2024-03-07T05:27:27;36.88;;;18.42;;
26082;SDS011;13848;49.018;12.078;2024-03-07T05:29:55;40.15;;;19.52;;
26082;SDS011;13848;49.018;12.078;2024-03-07T05:32:21;35.60;;;17.98;;
26082;SDS011;13848;49.018;12.078;2024-03-07T05:34:48;35.58;;;17.55;;
26082;SDS011;13848;49.018;12.078;2024-03-07T05:37:15;36.05;;;18.63;;
26082;SDS011;13848;49.018;12.078;2024-03-07T05:39:41;39.70;;;18.75;;
26082;SDS011;13848;49.018;12.078;2024-03-07T05:42:06;32.80;;;17.55;;
26082;SDS011;13848;49.018;12.078;2024-03-07T05:44:32;34.92;;;18.08;;
26082;SDS011;13848;49.018;12.078;2024-03-07T05:47:00;38.28;;;18.80;;
26082;SDS011;13848;49.018;12.078;2024-03-07T05:49:26;39.00;;;19.55;;
26082;SDS011;13848;49.018;12.078;2024-03-07T05:51:52;35.67;;;18.23;;
26082;SDS011;13848;49.018;12.078;2024-03-07T05:54:17;40.90;;;19.10;;
26082;SDS011;13848;49.018;12.078;2024-03-07T05:56:43;34.63;;;18.17;;
26082;SDS011;13848;49.018;12.078;2024-03-07T05:59:09;33.10;;;18.85;;
26082;SDS011;13848;49.018;12.078;2024-03-07T06:01:35;37.83;;;18.42;;
26082;SDS011;13848;49.018;12.078;2024-03-07T06:04:04;35.05;;;17.40;;
26082;SDS011;13848;49.018;12.078;2024-03-07T06:06:30;35.53;;;17.42;;
26082;SDS011;13848;49.018;12.078;2024-03-07T06:08:57;35.83;;;17.77;;
26082;SDS011;13848;49.018;12.078;2024-03-07T06:11:23;47.72;;;17.63;;
26082;SDS011;13848;49.018;12.078;2024-03-07T06:13:49;35.97;;;17.88;;
26082;SDS011;13848;49.018;12.078;2024-03-07T06:16:15;34.58;;;18.02;;
26082;SDS011;13848;49.018;12.078;2024-03-07T06:18:43;32.97;;;17.30;;
26082;SDS011;13848;49.018;12.078;2024-03-07T06:21:11;35.70;;;17.83;;
26082;SDS011;13848;49.018;12.078;2024-03-07T06:23:37;31.75;;;17.17;;
26082;SDS011;13848;49.018;12.078;2024-03-07T06:26:03;35.72;;;18.67;;
26082;SDS011;13848;49.018;12.078;2024-03-07T06:28:29;34.47;;;18.77;;
26082;SDS011;13848;49.018;12.078;2024-03-07T06:30:54;34.95;;;17.17;;
26082;SDS011;13848;49.018;12.078;2024-03-07T06:33:21;35.28;;;16.95;;
26082;SDS011;13848;49.018;12.078;2024-03-07T06:35:47;38.20;;;17.45;;
26082;SDS011;13848;49.018;12.078;2024-03-07T06:38:15;39.47;;;18.40;;
26082;SDS011;13848;49.018;12.078;2024-03-07T06:40:41;36.22;;;18.35;;
26082;SDS011;13848;49.018;12.078;2024-03-07T06:43:07;33.10;;;17.13;;
26082;SDS011;13848;49.018;12.078;2024-03-07T06:45:33;35.88;;;18.92;;
26082;SDS011;13848;49.018;12.078;2024-03-07T06:47:59;35.35;;;17.30;;
26082;SDS011;13848;49.018;12.078;2024-03-07T06:50:25;36.22;;;17.60;;
26082;SDS011;13848;49.018;12.078;2024-03-07T06:52:51;31.48;;;17.02;;
26082;SDS011;13848;49.018;12.078;2024-03-07T06:55:18;32.03;;;16.85;;
26082;SDS011;13848;49.018;12.078;2024-03-07T06:57:45;38.80;;;17.33;;
26082;SDS011;13848;49.018;12.078;2024-03-07T07:00:11;33.47;;;16.65;;
26082;SDS011;13848;49.018;12.078;2024-03-07T07:02:39;33.50;;;16.65;;
26082;SDS011;13848;49.018;12.078;2024-03-07T07:05:06;35.33;;;17.80;;
26082;SDS011;13848;49.018;12.078;2024-03-07T07:07:32;37.92;;;18.30;;
26082;SDS011;13848;49.018;12.078;2024-03-07T07:09:58;32.92;;;16.52;;
26082;SDS011;13848;49.018;12.078;2024-03-07T07:12:26;34.65;;;17.92;;
26082;SDS011;13848;49.018;12.078;2024-03-07T07:14:52;32.15;;;16.60;;
26082;SDS011;13848;49.018;12.078;2024-03-07T07:17:18;32.83;;;18.00;;
26082;SDS011;13848;49.018;12.078;2024-03-07T07:19:44;35.30;;;17.42;;
26082;SDS011;13848;49.018;12.078;2024-03-07T07:22:10;34.47;;;17.55;;
26082;SDS011;13848;49.018;12.078;2024-03-07T07:24:37;32.55;;;16.60;;
26082;SDS011;13848;49.018;12.078;2024-03-07T07:27:03;36.05;;;18.35;;
26082;SDS011;13848;49.018;12.078;2024-03-07T07:29:31;33.05;;;16.92;;
26082;SDS011;13848;49.018;12.078;2024-03-07T07:31:56;34.70;;;16.50;;
26082;SDS011;13848;49.018;12.078;2024-03-07T07:34:22;31.67;;;17.00;;
26082;SDS011;13848;49.018;12.078;2024-03-07T07:36:48;31.92;;;16.40;;
26082;SDS011;13848;49.018;12.078;2024-03-07T07:39:14;31.58;;;16.85;;
26082;SDS011;13848;49.018;12.078;2024-03-07T07:41:40;31.05;;;15.60;;
26082;SDS011;13848;49.018;12.078;2024-03-07T07:44:06;31.02;;;16.17;;
26082;SDS011;13848;49.018;12.078;2024-03-07T07:46:33;35.00;;;17.10;;
26082;SDS011;13848;49.018;12.078;2024-03-07T07:49:00;33.95;;;16.30;;
26082;SDS011;13848;49.018;12.078;2024-03-07T07:51:26;32.17;;;16.40;;
26082;SDS011;13848;49.018;12.078;2024-03-07T07:53:52;29.88;;;15.02;;
26082;SDS011;13848;49.018;12.078;2024-03-07T07:56:18;28.00;;;14.77;;
26082;SDS011;13848;49.018;12.078;2024-03-07T07:58:44;30.25;;;14.70;;
26082;SDS011;13848;49.018;12.078;2024-03-07T08:01:10;29.42;;;15.38;;
26082;SDS011;13848;49.018;12.078;2024-03-07T08:03:37;30.13;;;15.65;;
26082;SDS011;13848;49.018;12.078;2024-03-07T08:06:03;30.42;;;15.13;;
26082;SDS011;13848;49.018;12.078;2024-03-07T08:08:29;32.08;;;15.45;;
26082;SDS011;13848;49.018;12.078;2024-03-07T08:10:55;30.13;;;15.65;;
26082;SDS011;13848;49.018;12.078;2024-03-07T08:13:21;32.22;;;15.20;;
26082;SDS011;13848;49.018;12.078;2024-03-07T08:15:47;31.45;;;14.60;;
26082;SDS011;13848;49.018;12.078;2024-03-07T08:18:13;31.50;;;15.85;;
26082;SDS011;13848;49.018;12.078;2024-03-07T08:20:40;28.40;;;14.77;;
26082;SDS011;13848;49.018;12.078;2024-03-07T08:23:06;28.27;;;14.25;;
26082;SDS011;13848;49.018;12.078;2024-03-07T08:25:32;32.42;;;14.50;;
26082;SDS011;13848;49.018;12.078;2024-03-07T08:27:59;30.17;;;14.27;;
26082;SDS011;13848;49.018;12.078;2024-03-07T08:30:26;28.42;;;14.13;;
26082;SDS011;13848;49.018;12.078;2024-03-07T08:32:53;31.85;;;14.35;;
26082;SDS011;13848;49.018;12.078;2024-03-07T08:35:20;27.20;;;14.02;;
26082;SDS011;13848;49.018;12.078;2024-03-07T08:37:48;28.77;;;14.00;;
26082;SDS011;13848;49.018;12.078;2024-03-07T08:40:15;33.90;;;15.32;;
26082;SDS011;13848;49.018;12.078;2024-03-07T08:42:41;31.63;;;14.15;;
26082;SDS011;13848;49.018;12.078;2024-03-07T08:45:07;27.42;;;13.43;;
26082;SDS011;13848;49.018;12.078;2024-03-07T08:47:34;45.35;;;15.20;;
26082;SDS011;13848;49.018;12.078;2024-03-07T08:50:00;27.58;;;14.10;;
26082;SDS011;13848;49.018;12.078;2024-03-07T08:52:27;30.75;;;14.93;;
26082;SDS011;13848;49.018;12.078;2024-03-07T08:54:54;30.08;;;13.95;;
26082;SDS011;13848;49.018;12.078;2024-03-07T08:57:20;27.77;;;14.77;;
26082;SDS011;13848;49.018;12.078;2024-03-07T08:59:46;31.20;;;13.50;;
26082;SDS011;13848;49.018;12.078;2024-03-07T09:02:12;32.55;;;15.75;;
26082;SDS011;13848;49.018;12.078;2024-03-07T09:04:38;28.35;;;14.38;;
26082;SDS011;13848;49.018;12.078;2024-03-07T09:07:04;34.03;;;14.45;;
26082;SDS011;13848;49.018;12.078;2024-03-07T09:09:30;25.08;;;13.27;;
26082;SDS011;13848;49.018;12.078;2024-03-07T09:11:58;27.63;;;13.32;;
26082;SDS011;13848;49.018;12.078;2024-03-07T09:14:23;28.92;;;15.07;;
26082;SDS011;13848;49.018;12.078;2024-03-07T09:16:49;29.67;;;13.48;;
26082;SDS011;13848;49.018;12.078;2024-03-07T09:19:15;28.30;;;12.73;;
26082;SDS011;13848;49.018;12.078;2024-03-07T09:21:41;26.33;;;13.27;;
26082;SDS011;13848;49.018;12.078;2024-03-07T09:24:07;26.88;;;13.43;;
26082;SDS011;13848;49.018;12.078;2024-03-07T09:26:33;27.25;;;13.00;;
26082;SDS011;13848;49.018;12.078;2024-03-07T09:29:00;27.58;;;13.13;;
26082;SDS011;13848;49.018;12.078;2024-03-07T09:31:26;31.02;;;14.35;;
26082;SDS011;13848;49.018;12.078;2024-03-07T09:33:52;27.83;;;14.25;;
26082;SDS011;13848;49.018;12.078;2024-03-07T09:36:18;28.67;;;13.25;;
26082;SDS011;13848;49.018;12.078;2024-03-07T09:38:44;32.63;;;13.50;;
26082;SDS011;13848;49.018;12.078;2024-03-07T09:41:10;26.65;;;12.82;;
26082;SDS011;13848;49.018;12.078;2024-03-07T09:43:36;27.85;;;13.30;;
26082;SDS011;13848;49.018;12.078;2024-03-07T09:46:04;29.60;;;12.93;;
26082;SDS011;13848;49.018;12.078;2024-03-07T09:48:31;26.60;;;12.02;;
26082;SDS011;13848;49.018;12.078;2024-03-07T09:50:57;28.40;;;12.13;;
26082;SDS011;13848;49.018;12.078;2024-03-07T09:53:25;24.98;;;12.90;;
26082;SDS011;13848;49.018;12.078;2024-03-07T09:55:52;27.52;;;13.13;;
26082;SDS011;13848;49.018;12.078;2024-03-07T09:58:19;22.95;;;11.77;;
26082;SDS011;13848;49.018;12.078;2024-03-07T10:00:46;29.75;;;12.90;;
26082;SDS011;13848;49.018;12.078;2024-03-07T10:03:14;26.05;;;12.68;;
26082;SDS011;13848;49.018;12.078;2024-03-07T10:05:44;26.05;;;12.32;;
26082;SDS011;13848;49.018;12.078;2024-03-07T10:08:10;29.30;;;12.65;;
26082;SDS011;13848;49.018;12.078;2024-03-07T10:10:36;29.05;;;12.93;;
26082;SDS011;13848;49.018;12.078;2024-03-07T10:13:03;22.98;;;12.00;;
26082;SDS011;13848;49.018;12.078;2024-03-07T10:15:29;26.85;;;12.30;;
26082;SDS011;13848;49.018;12.078;2024-03-07T10:17:55;27.15;;;12.52;;
26082;SDS011;13848;49.018;12.078;2024-03-07T10:20:22;21.58;;;11.60;;
26082;SDS011;13848;49.018;12.078;2024-03-07T10:22:48;24.02;;;11.27;;
26082;SDS011;13848;49.018;12.078;2024-03-07T10:25:16;21.30;;;11.35;;
26082;SDS011;13848;49.018;12.078;2024-03-07T10:27:42;28.17;;;12.05;;
26082;SDS011;13848;49.018;12.078;2024-03-07T10:30:09;24.98;;;12.68;;
26082;SDS011;13848;49.018;12.078;2024-03-07T10:32:35;27.63;;;11.73;;
26082;SDS011;13848;49.018;12.078;2024-03-07T10:35:01;22.33;;;11.30;;
26082;SDS011;13848;49.018;12.078;2024-03-07T10:37:29;18.20;;;10.10;;
26082;SDS011;13848;49.018;12.078;2024-03-07T10:39:55;19.27;;;10.75;;
26082;SDS011;13848;49.018;12.078;2024-03-07T10:42:21;22.77;;;11.50;;
26082;SDS011;13848;49.018;12.078;2024-03-07T10:44:49;19.80;;;10.48;;
26082;SDS011;13848;49.018;12.078;2024-03-07T10:47:15;20.95;;;10.95;;
26082;SDS011;13848;49.018;12.078;2024-03-07T10:49:45;18.73;;;10.73;;
26082;SDS011;13848;49.018;12.078;2024-03-07T10:52:20;22.15;;;11.85;;
26082;SDS011;13848;49.018;12.078;2024-03-07T10:54:56;22.00;;;11.05;;
26082;SDS011;13848;49.018;12.078;2024-03-07T10:57:35;16.60;;;10.05;;
26082;SDS011;13848;49.018;12.078;2024-03-07T11:00:07;21.35;;;10.30;;
26082;SDS011;13848;49.018;12.078;2024-03-07T11:02:36;21.42;;;10.68;;
26082;SDS011;13848;49.018;12.078;2024-03-07T11:05:09;16.42;;;9.38;;
26082;SDS011;13848;49.018;12.078;2024-03-07T11:07:35;24.30;;;10.82;;
26082;SDS011;13848;49.018;12.078;2024-03-07T11:10:03;18.38;;;10.43;;
26082;SDS011;13848;49.018;12.078;2024-03-07T11:12:30;17.30;;;10.20;;
26082;SDS011;13848;49.018;12.078;2024-03-07T11:14:57;17.42;;;10.25;;
26082;SDS011;13848;49.018;12.078;2024-03-07T11:17:23;17.98;;;9.88;;
26082;SDS011;13848;49.018;12.078;2024-03-07T11:19:50;19.55;;;10.73;;
26082;SDS011;13848;49.018;12.078;2024-03-07T11:22:28;18.90;;;9.88;;
26082;SDS011;13848;49.018;12.078;2024-03-07T11:24:59;20.27;;;10.02;;
26082;SDS011;13848;49.018;12.078;2024-03-07T11:27:27;16.42;;;9.32;;
26082;SDS011;13848;49.018;12.078;2024-03-07T11:29:53;17.75;;;10.35;;
26082;SDS011;13848;49.018;12.078;2024-03-07T11:32:19;18.15;;;10.70;;
26082;SDS011;13848;49.018;12.078;2024-03-07T11:34:45;19.95;;;10.90;;
26082;SDS011;13848;49.018;12.078;2024-03-07T11:37:16;19.02;;;10.70;;
26082;SDS011;13848;49.018;12.078;2024-03-07T11:39:43;16.92;;;9.77;;
26082;SDS011;13848;49.018;12.078;2024-03-07T11:42:18;15.77;;;9.80;;
26082;SDS011;13848;49.018;12.078;2024-03-07T11:44:46;17.63;;;9.90;;
26082;SDS011;13848;49.018;12.078;2024-03-07T11:47:13;19.05;;;10.27;;
26082;SDS011;13848;49.018;12.078;2024-03-07T11:49:39;18.08;;;10.60;;
26082;SDS011;13848;49.018;12.078;2024-03-07T11:52:05;18.52;;;10.73;;
26082;SDS011;13848;49.018;12.078;2024-03-07T11:54:31;18.50;;;10.60;;
26082;SDS011;13848;49.018;12.078;2024-03-07T11:56:57;18.95;;;10.20;;
26082;SDS011;13848;49.018;12.078;2024-03-07T11:59:23;17.65;;;10.07;;
26082;SDS011;13848;49.018;12.078;2024-03-07T12:01:50;12.95;;;8.48;;
26082;SDS011;13848;49.018;12.078;2024-03-07T12:04:16;16.23;;;10.30;;
26082;SDS011;13848;49.018;12.078;2024-03-07T12:06:49;20.13;;;9.88;;
26082;SDS011;13848;49.018;12.078;2024-03-07T12:09:16;19.15;;;9.52;;
26082;SDS011;13848;49.018;12.078;2024-03-07T12:11:42;21.40;;;10.23;;
26082;SDS011;13848;49.018;12.078;2024-03-07T12:14:08;16.90;;;10.00;;
26082;SDS011;13848;49.018;12.078;2024-03-07T12:16:34;17.48;;;10.35;;
26082;SDS011;13848;49.018;12.078;2024-03-07T12:19:01;17.70;;;9.80;;
26082;SDS011;13848;49.018;12.078;2024-03-07T12:21:27;17.48;;;9.30;;
26082;SDS011;13848;49.018;12.078;2024-03-07T12:23:53;19.08;;;9.35;;
26082;SDS011;13848;49.018;12.078;2024-03-07T12:26:19;13.43;;;8.55;;
26082;SDS011;13848;49.018;12.078;2024-03-07T12:28:45;15.43;;;9.15;;
26082;SDS011;13848;49.018;12.078;2024-03-07T12:31:11;14.27;;;8.52;;
26082;SDS011;13848;49.018;12.078;2024-03-07T12:33:37;15.95;;;9.02;;
26082;SDS011;13848;49.018;12.078;2024-03-07T12:36:06;16.23;;;8.45;;
26082;SDS011;13848;49.018;12.078;2024-03-07T12:38:32;18.58;;;9.82;;
26082;SDS011;13848;49.018;12.078;2024-03-07T12:41:02;16.73;;;8.77;;
26082;SDS011;13848;49.018;12.078;2024-03-07T12:43:29;15.20;;;8.60;;
26082;SDS011;13848;49.018;12.078;2024-03-07T12:45:57;15.18;;;8.15;;
26082;SDS011;13848;49.018;12.078;2024-03-07T12:48:23;17.88;;;8.80;;
26082;SDS011;13848;49.018;12.078;2024-03-07T12:50:50;14.30;;;8.70;;
26082;SDS011;13848;49.018;12.078;2024-03-07T12:53:18;14.68;;;8.13;;
26082;SDS011;13848;49.018;12.078;2024-03-07T12:55:44;16.77;;;8.90;;
26082;SDS011;13848;49.018;12.078;2024-03-07T12:58:10;14.35;;;8.75;;
26082;SDS011;13848;49.018;12.078;2024-03-07T13:00:36;16.85;;;8.55;;
26082;SDS011;13848;49.018;12.078;2024-03-07T13:03:02;16.25;;;9.10;;
26082;SDS011;13848;49.018;12.078;2024-03-07T13:05:30;15.38;;;8.77;;
26082;SDS011;13848;49.018;12.078;2024-03-07T13:07:55;15.30;;;8.70;;
26082;SDS011;13848;49.018;12.078;2024-03-07T13:10:23;13.88;;;8.45;;
26082;SDS011;13848;49.018;12.078;2024-03-07T13:12:49;14.50;;;8.10;;
26082;SDS011;13848;49.018;12.078;2024-03-07T13:15:16;17.23;;;9.15;;
26082;SDS011;13848;49.018;12.078;2024-03-07T13:17:42;16.67;;;9.00;;
26082;SDS011;13848;49.018;12.078;2024-03-07T13:20:08;18.50;;;9.68;;
26082;SDS011;13848;49.018;12.078;2024-03-07T13:22:35;13.90;;;7.10;;
26082;SDS011;13848;49.018;12.078;2024-03-07T13:25:01;16.35;;;8.63;;
26082;SDS011;13848;49.018;12.078;2024-03-07T13:27:29;13.05;;;8.13;;
26082;SDS011;13848;49.018;12.078;2024-03-07T13:29:55;15.07;;;8.40;;
26082;SDS011;13848;49.018;12.078;2024-03-07T13:32:21;14.95;;;8.73;;
26082;SDS011;13848;49.018;12.078;2024-03-07T13:34:47;15.02;;;9.05;;
26082;SDS011;13848;49.018;12.078;2024-03-07T13:37:13;16.23;;;9.35;;
26082;SDS011;13848;49.018;12.078;2024-03-07T13:39:38;13.95;;;8.60;;
26082;SDS011;13848;49.018;12.078;2024-03-07T13:42:04;14.07;;;8.65;;
26082;SDS011;13848;49.018;12.078;2024-03-07T13:44:32;16.20;;;8.80;;
26082;SDS011;13848;49.018;12.078;2024-03-07T13:46:58;17.90;;;8.90;;
26082;SDS011;13848;49.018;12.078;2024-03-07T13:49:24;20.98;;;8.93;;
26082;SDS011;13848;49.018;12.078;2024-03-07T13:51:50;17.15;;;9.23;;
26082;SDS011;13848;49.018;12.078;2024-03-07T13:54:16;25.98;;;14.27;;
26082;SDS011;13848;49.018;12.078;2024-03-07T13:56:44;17.98;;;9.90;;
26082;SDS011;13848;49.018;12.078;2024-03-07T14:02:25;17.10;;;8.90;;
26082;SDS011;13848;49.018;12.078;2024-03-07T14:08:13;17.00;;;9.20;;
26082;SDS011;13848;49.018;12.078;2024-03-07T14:11:08;17.30;;;8.48;;
26082;SDS011;13848;49.018;12.078;2024-03-07T14:13:59;13.82;;;8.15;;